Historyczne dane pomiarowe

Dodano dane terminowe – wersja testowa.

Dane z okresu 1951-2019

Wersja bazy: 1.34 [2019-03-16, lista zmian], aktualizacja planowana na 2019-04-15

Dane meteo z obszaru Polski uzyskane na podstawie danych udostępnionych przez Instytut Meteorologii i Gospodarki Wodnej – Państwowy Instytut Badawczy.

 

Wybierz Datę:    

       

TemperaturaWilgotnośćWiatrCiśnienieOpadyŚniegCzas trwania zjawisk
 Stacja t tx tn tng RH VA  wxwx mslp ppp RRR   cm mm wxwxwxwxwxwxwx
1995-04-17 -5.5 -2.8 -8.5- 87.5 3.6 6.3 4.1 2.0 0.0- 785.0 4.9 2.7 2.2350 3.5 5.4- 6.8- 9.0---
1995-04-18 -3.1 -1.8 -6.8- 96.6 4.7 7.8 7.6 0.8 0.0- 786.1 0.7 0.4 0.3353 3.6 0.6- 6.4- 19.7---
1995-04-19 0.2 1.9 -2.0- 92.9 5.7 7.3 8.1 13.4 1.5- 790.6 0.4 0.4 0.0346 3.7 0.9 1.3 0.3- 6.5---
1995-04-20 1.0 2.1 -0.3- 89.0 5.9 6.9 13.3 12.7 9.3- 794.2 0.2 0.2 0.0340 3.8 4.9 1.5 0.8-----
1995-04-21 3.9 5.8 1.1- 74.1 6.0 3.9 6.3 0.8 0.0- 803.1 0.0 0.0 0.0328 3.9 9.4-------
1995-04-22 6.0 8.3 3.0- 59.0 5.5 0.9 7.5 6.2 0.0- 805.9 0.0 0.0 0.0308 3.9 13.4-------
1995-04-23 6.3 9.7 3.8- 63.1 5.9 2.8 4.0 0.0 0.0- 805.6 0.2 0.2 0.0295 3.7 11.6 0.8----- 1.7
1995-04-24 3.3 6.2 2.1- 73.4 5.7 3.4 5.1 3.3 0.0- 798.4 0.0 0.0 0.0271 3.7 10.7-------
1995-04-25 0.4 3.2 -0.8- 90.8 5.7 5.8 6.9 1.5 0.0- 789.6 4.7 3.2 1.5255 4.1 1.8 0.8 4.0- 4.1---
1995-04-26 -0.6 0.6 -1.7- 97.9 5.7 7.9 6.3 10.0 0.0- 780.5 16.8 5.4 11.4245 4.5 0.0- 20.3- 20.8---
1995-04-27 -1.2 -0.5 -2.6- 99.0 5.5 8.0 8.3 6.5 0.0- 780.2 5.8 4.8 1.0250 4.4 0.0- 8.0- 24.0---
1995-04-28 -0.4 1.6 -1.5- 99.5 5.9 7.6 4.5 0.0 0.0- 792.0 0.0 0.0 0.0252 4.5 2.6 0.2-- 22.1---
1995-04-29 -0.2 2.5 -2.3- 91.9 5.6 5.5 5.9 0.0 0.0- 798.5 0.0 0.0 0.0250- 11.9--- 9.1---
1995-04-30 2.6 6.7 -0.6- 54.9 4.0 3.8 3.4 0.0 0.0- 801.4 0.0 0.0 0.0240 5.2 11.9-------
1995-05-01 0.1 4.3 -2.3- 89.8 5.5 5.9 3.9 0.0 0.0- 802.6 2.8 0.0 2.8223 4.6 5.4- 3.1- 15.7---
1995-05-02 -6.4 -2.2 -7.7- 91.5 3.5 7.5 6.1 0.0 0.0- 802.7 0.0 0.0 0.0207 4.6 3.5- 0.8- 15.8---
1995-05-03 -4.3 0.0 -9.7- 60.5 2.8 2.3 4.3 0.0 0.0- 805.7 0.0 0.0 0.0205- 14.4--- 0.5---
1995-05-04 0.1 4.2 -4.1- 70.1 4.3 5.6 3.6 0.0 0.0- 804.2 4.3 3.5 0.8201- 7.6- 4.5- 4.0---
1995-05-05 -0.7 0.2 -1.8- 96.3 5.6 7.4 5.9 0.0 0.0- 800.5 1.3 1.3 0.0194 4.8 0.9- 2.2- 11.3-- 0.5
1995-05-06 1.6 4.5 -1.0- 93.1 6.4 7.5 6.0 1.2 0.0- 798.7 1.2 0.7 0.5190- 2.7 1.9 0.1- 3.5-- 0.4
1995-05-07 0.4 3.4 -0.8- 86.9 5.4 7.3 6.6 0.0 0.0- 795.3 0.7 0.0 0.7186 4.1 8.2- 2.7- 8.3---
1995-05-08 0.3 4.8 -4.2- 85.8 5.4 7.3 4.9 0.0 0.0- 795.6 1.0 0.0 1.0180 4.9 5.9 0.6-- 6.8---
1995-05-09 -0.3 4.5 -3.0- 98.1 6.0 7.8 8.5 14.0 0.0- 790.5 10.3 5.2 5.1169 5.4 2.7 1.8 6.1- 17.0-- 1.4
1995-05-10 -3.4 -1.5 -4.6- 94.5 4.5 7.6 6.4 6.5 0.0- 792.1 1.3 1.3 0.0169 5.5 2.3- 4.1- 14.8---
1995-05-11 -2.3 -0.6 -4.5- 88.6 4.6 7.1 3.8 0.8 0.0- 791.4 0.1 0.0 0.1168- 0.6 0.3 0.1- 3.3---
1995-05-12 1.5 3.7 -1.8- 97.9 6.7 7.0 10.8 14.1 0.0- 788.8 23.5 5.1 18.4168- 3.0 4.3 0.3 0.4 16.4---
1995-05-13 3.3 5.0 0.7- 96.5 7.5 7.6 15.0 23.3 11.8- 779.3 11.5 6.5 5.0150 4.9 0.7 9.5 3.4 1.0 17.4---
1995-05-14 -3.2 1.8 -5.6- 98.0 4.8 8.0 7.0 1.2 0.0- 786.2 8.5 6.5 2.0140 5.0 0.0 1.3 12.4- 24.0---
1995-05-15 -4.9 -1.4 -7.5- 96.5 4.1 6.0 4.6 0.0 0.0- 795.8 1.2 1.2 0.0145 5.4 4.6- 7.3- 12.5---
1995-05-16 -2.8 1.4 -6.1- 89.9 4.5 4.3 8.9 11.7 0.0- 796.5 0.0 0.0 0.0145- 14.8--- 2.4---
308.1 ms

 

Źródłem pochodzenia danych jest Instytut Meteorologii i Gospodarki Wodnej – Państwowy Instytut Badawczy. Dane Instytutu Meteorologii i Gospodarki Wodnej – Państwowego Instytutu Badawczego zostały przetworzone.

Dane źródłowe można odnaleźć na stronie https://dane.imgw.pl